createdAt,value
2018-08-13T00:00:48.833Z,43.10
2018-08-13T00:03:18.593Z,43.30
2018-08-13T00:05:47.063Z,45.70
2018-08-13T00:08:16.604Z,46.70
2018-08-13T00:10:45.091Z,45.50
2018-08-13T00:13:13.713Z,46.40
2018-08-13T00:15:42.383Z,47.40
2018-08-13T00:18:12.051Z,47.40
2018-08-13T00:20:40.620Z,47.10
2018-08-13T00:23:09.787Z,48.80
2018-08-13T00:25:38.357Z,48.00
2018-08-13T00:28:08.559Z,50.20
2018-08-13T00:30:37.225Z,49.60
2018-08-13T00:33:07.012Z,48.00
2018-08-13T00:35:35.810Z,49.60
2018-08-13T00:38:04.470Z,50.10
2018-08-13T00:40:32.939Z,52.80
2018-08-13T00:43:01.384Z,49.50
2018-08-13T00:45:30.055Z,50.50
2018-08-13T00:47:58.597Z,51.10
2018-08-13T00:50:27.090Z,51.00
2018-08-13T00:52:55.643Z,51.40
2018-08-13T00:55:24.092Z,50.40
2018-08-13T00:57:52.568Z,52.30
2018-08-13T01:00:22.254Z,50.00
2018-08-13T01:02:51.488Z,48.40
2018-08-13T01:05:20.920Z,50.90
2018-08-13T01:07:49.778Z,52.00
2018-08-13T01:10:20.737Z,53.90
2018-08-13T01:12:49.340Z,54.80
2018-08-13T01:15:19.120Z,54.00
2018-08-13T01:17:48.904Z,56.70
2018-08-13T01:20:19.674Z,55.20
2018-08-13T01:22:48.293Z,54.00
2018-08-13T01:25:18.269Z,55.80
2018-08-13T01:27:46.821Z,54.30
2018-08-13T01:30:16.925Z,55.40
2018-08-13T01:32:45.400Z,56.40
2018-08-13T01:35:13.954Z,57.80
2018-08-13T01:37:42.548Z,57.70
2018-08-13T01:40:12.050Z,57.40
2018-08-13T01:42:40.534Z,59.10
2018-08-13T01:45:11.769Z,57.90
2018-08-13T01:47:41.052Z,57.20
2018-08-13T01:50:11.384Z,59.70
2018-08-13T01:52:40.733Z,59.60
2018-08-13T01:55:10.290Z,60.80
2018-08-13T01:57:38.828Z,61.20
2018-08-13T02:00:14.504Z,61.20
2018-08-13T02:02:43.067Z,61.30
2018-08-13T02:05:11.532Z,61.60
2018-08-13T02:07:40.110Z,60.60
2018-08-13T02:10:10.636Z,60.60
2018-08-13T02:12:40.485Z,61.40
2018-08-13T02:15:08.937Z,60.90
2018-08-13T02:17:37.550Z,62.00
2018-08-13T02:20:07.823Z,62.10
2018-08-13T02:22:36.728Z,62.00
2018-08-13T02:25:06.040Z,62.50
2018-08-13T02:27:34.488Z,62.60
2018-08-13T02:30:03.444Z,62.50
2018-08-13T02:32:31.984Z,62.10
2018-08-13T02:35:00.493Z,61.00
2018-08-13T02:37:29.034Z,61.90
2018-08-13T02:39:57.512Z,62.30
2018-08-13T02:42:25.992Z,62.00
2018-08-13T02:44:54.491Z,62.90
2018-08-13T02:47:22.987Z,64.70
2018-08-13T02:49:51.505Z,63.30
2018-08-13T02:52:19.908Z,63.00
2018-08-13T02:54:48.389Z,63.60
2018-08-13T02:57:16.806Z,63.20
2018-08-13T02:59:45.289Z,62.40
2018-08-13T03:02:13.924Z,62.20
2018-08-13T03:04:42.535Z,62.20
2018-08-13T03:07:10.961Z,63.60
2018-08-13T03:09:39.524Z,64.50
2018-08-13T03:12:08.039Z,64.50
2018-08-13T03:14:36.607Z,64.20
2018-08-13T03:17:05.228Z,64.90
2018-08-13T03:19:33.672Z,64.40
2018-08-13T03:22:02.166Z,64.20
2018-08-13T03:24:30.693Z,65.30
2018-08-13T03:26:59.278Z,65.30
2018-08-13T03:29:27.788Z,65.70
2018-08-13T03:31:56.289Z,64.20
2018-08-13T03:34:24.766Z,64.50
2018-08-13T03:36:53.233Z,64.30
2018-08-13T03:39:21.772Z,65.30
2018-08-13T03:41:50.295Z,65.20
2018-08-13T03:44:18.828Z,65.00
2018-08-13T03:46:47.448Z,65.50
2018-08-13T03:49:16.003Z,65.70
2018-08-13T03:51:44.792Z,66.30
2018-08-13T03:54:13.342Z,66.70
2018-08-13T03:56:42.348Z,67.10
2018-08-13T03:59:10.835Z,67.50
2018-08-13T04:01:39.444Z,65.60
2018-08-13T04:04:07.976Z,66.20
2018-08-13T04:06:36.620Z,67.30
2018-08-13T04:09:08.277Z,67.20
2018-08-13T04:11:37.113Z,67.50
2018-08-13T04:14:07.192Z,68.50
2018-08-13T04:16:35.969Z,68.30
2018-08-13T04:19:04.577Z,67.10
2018-08-13T04:21:33.704Z,67.60
2018-08-13T04:24:02.158Z,67.70
2018-08-13T04:26:30.608Z,67.90
2018-08-13T04:28:59.056Z,67.70
2018-08-13T04:31:27.463Z,67.70
2018-08-13T04:33:56.022Z,67.60
2018-08-13T04:36:24.452Z,68.00
2018-08-13T04:38:53.042Z,67.50
2018-08-13T04:41:21.552Z,67.20
2018-08-13T04:43:50.108Z,66.70
2018-08-13T04:46:18.628Z,65.90
2018-08-13T04:48:47.117Z,65.60
2018-08-13T04:51:16.152Z,65.70
2018-08-13T04:53:44.673Z,66.00
2018-08-13T04:56:13.104Z,67.20
2018-08-13T04:58:41.808Z,67.50
2018-08-13T05:01:10.309Z,66.90
2018-08-13T05:03:38.873Z,67.60
2018-08-13T05:06:07.391Z,66.00
2018-08-13T05:08:35.952Z,64.80
2018-08-13T05:11:05.314Z,65.50
2018-08-13T05:13:33.745Z,65.50
2018-08-13T05:16:02.313Z,65.80
2018-08-13T05:18:30.833Z,65.40
2018-08-13T05:20:59.361Z,64.00
2018-08-13T05:23:27.983Z,63.60
2018-08-13T05:25:56.508Z,63.40
2018-08-13T05:28:25.024Z,63.60
2018-08-13T05:30:53.707Z,62.10
2018-08-13T05:33:22.260Z,62.00
2018-08-13T05:35:50.793Z,60.30
2018-08-13T05:38:19.344Z,56.20
2018-08-13T05:40:47.824Z,60.40
2018-08-13T05:43:16.287Z,57.60
2018-08-13T05:45:46.228Z,52.30
2018-08-13T05:48:14.667Z,50.60
2018-08-13T05:50:43.183Z,49.40
2018-08-13T05:53:11.707Z,54.00
2018-08-13T05:55:40.208Z,51.80
2018-08-13T05:58:08.687Z,51.10
2018-08-13T06:00:37.795Z,54.20
2018-08-13T06:03:06.950Z,59.50
2018-08-13T06:05:35.428Z,54.10
2018-08-13T06:08:04.090Z,58.30
2018-08-13T06:10:32.595Z,57.40
2018-08-13T06:13:01.064Z,59.80
2018-08-13T06:15:29.613Z,54.30
2018-08-13T06:17:58.133Z,51.90
2018-08-13T06:20:26.617Z,49.80
2018-08-13T06:22:55.157Z,46.30
2018-08-13T06:25:23.576Z,45.70
2018-08-13T06:27:52.153Z,48.30
2018-08-13T06:30:20.663Z,44.50
2018-08-13T06:32:49.128Z,44.70
2018-08-13T06:35:17.611Z,41.30
2018-08-13T06:37:46.041Z,42.80
2018-08-13T06:40:14.845Z,41.10
2018-08-13T06:42:44.324Z,41.30
2018-08-13T06:45:12.808Z,40.60
2018-08-13T06:47:41.564Z,39.90
2018-08-13T06:50:12.701Z,39.80
2018-08-13T06:52:41.321Z,39.90
2018-08-13T06:55:09.992Z,40.20
2018-08-13T06:57:38.496Z,40.30
2018-08-13T07:00:10.523Z,39.50
2018-08-13T07:02:39.414Z,39.70
2018-08-13T07:05:09.433Z,39.60
2018-08-13T07:07:38.960Z,39.60
2018-08-13T07:10:11.767Z,40.40
2018-08-13T07:12:42.143Z,40.00
2018-08-13T07:15:11.148Z,40.40
2018-08-13T07:17:39.602Z,40.40
2018-08-13T07:20:10.753Z,41.20
2018-08-13T07:22:39.222Z,41.20
2018-08-13T07:25:08.639Z,40.80
2018-08-13T07:27:37.281Z,41.60
2018-08-13T07:30:07.964Z,40.40
2018-08-13T07:32:36.763Z,41.10
2018-08-13T07:35:06.264Z,41.80
2018-08-13T07:37:34.840Z,42.10
2018-08-13T07:40:03.814Z,42.40
2018-08-13T07:42:33.072Z,42.30
2018-08-13T07:45:01.554Z,42.50
2018-08-13T07:47:30.589Z,42.20
2018-08-13T07:49:59.153Z,42.50
2018-08-13T07:52:27.659Z,41.60
2018-08-13T07:54:56.305Z,41.30
2018-08-13T07:57:24.843Z,40.60
2018-08-13T07:59:53.326Z,40.30
2018-08-13T08:02:21.776Z,39.80
2018-08-13T08:04:50.306Z,39.50
2018-08-13T08:07:18.900Z,39.70
2018-08-13T08:09:47.452Z,40.30
2018-08-13T08:12:15.944Z,40.40
2018-08-13T08:14:44.486Z,40.50
2018-08-13T08:17:12.922Z,40.20
2018-08-13T08:19:41.405Z,40.50
2018-08-13T08:22:09.981Z,40.50
2018-08-13T08:24:38.563Z,41.30
2018-08-13T08:27:07.873Z,42.20
2018-08-13T08:29:36.452Z,42.20
2018-08-13T08:32:04.940Z,42.70
2018-08-13T08:34:33.561Z,42.80
2018-08-13T08:37:02.102Z,42.40
2018-08-13T08:39:30.637Z,42.30
2018-08-13T08:41:59.074Z,42.30
2018-08-13T08:44:27.680Z,42.30
2018-08-13T08:46:56.177Z,42.20
2018-08-13T08:49:24.913Z,43.10
2018-08-13T08:51:54.243Z,41.70
2018-08-13T08:54:22.805Z,41.60
2018-08-13T08:56:51.280Z,40.80
2018-08-13T08:59:19.784Z,40.70
2018-08-13T09:01:48.412Z,39.90
2018-08-13T09:04:17.075Z,40.00
2018-08-13T09:06:46.333Z,40.60
2018-08-13T09:09:14.860Z,40.40
2018-08-13T09:11:43.313Z,40.50
2018-08-13T09:14:13.068Z,41.10
2018-08-13T09:16:44.124Z,40.60
2018-08-13T09:19:23.886Z,41.20
2018-08-13T09:21:57.743Z,41.30
2018-08-13T09:24:37.554Z,41.60
2018-08-13T09:27:17.314Z,41.10
2018-08-13T09:29:57.326Z,41.30
2018-08-13T09:32:37.109Z,41.00
2018-08-13T09:35:25.492Z,41.10
2018-08-13T09:37:55.124Z,42.70
2018-08-13T09:40:24.134Z,42.80
2018-08-13T09:42:52.676Z,43.10
2018-08-13T09:45:21.116Z,43.10
2018-08-13T09:47:49.667Z,43.60
2018-08-13T09:50:19.523Z,41.60
2018-08-13T09:52:49.285Z,43.20
2018-08-13T09:55:18.441Z,41.90
2018-08-13T09:57:47.962Z,41.50
2018-08-13T10:00:23.620Z,41.50
2018-08-13T10:02:52.141Z,41.50
2018-08-13T10:05:20.653Z,40.90
2018-08-13T10:07:49.084Z,41.30
2018-08-13T10:10:18.035Z,41.60
2018-08-13T10:12:46.936Z,41.90
2018-08-13T10:15:15.736Z,41.60
2018-08-13T10:17:44.576Z,42.30
2018-08-13T10:20:18.240Z,41.90
2018-08-13T10:22:47.196Z,41.90
2018-08-13T10:25:15.665Z,41.00
2018-08-13T10:27:44.342Z,41.40
2018-08-13T10:30:14.828Z,41.00
2018-08-13T10:32:43.319Z,41.10
2018-08-13T10:35:11.994Z,40.40
2018-08-13T10:37:41.893Z,41.50
2018-08-13T10:40:15.642Z,41.80
2018-08-13T10:42:44.359Z,42.30
2018-08-13T10:45:13.085Z,42.30
2018-08-13T10:47:41.545Z,42.60
2018-08-13T10:50:12.376Z,43.10
2018-08-13T10:52:41.296Z,42.30
2018-08-13T10:55:11.369Z,41.90
2018-08-13T10:57:39.983Z,42.00
2018-08-13T11:00:12.509Z,42.00
2018-08-13T11:02:41.150Z,42.40
2018-08-13T11:05:11.278Z,45.30
2018-08-13T11:07:39.955Z,45.60
2018-08-13T11:10:11.330Z,44.80
2018-08-13T11:12:39.804Z,44.70
2018-08-13T11:15:15.337Z,44.30
2018-08-13T11:17:43.845Z,44.80
2018-08-13T11:20:12.449Z,44.30
2018-08-13T11:22:42.003Z,44.70
2018-08-13T11:25:12.548Z,43.30
2018-08-13T11:27:41.225Z,42.90
2018-08-13T11:30:12.712Z,42.10
2018-08-13T11:32:41.222Z,43.10
2018-08-13T11:35:09.880Z,42.60
2018-08-13T11:37:38.417Z,42.00
2018-08-13T11:40:11.312Z,41.50
2018-08-13T11:42:40.339Z,41.90
2018-08-13T11:45:09.280Z,41.10
2018-08-13T11:47:38.565Z,41.70
2018-08-13T11:50:15.466Z,41.90
2018-08-13T11:52:45.521Z,41.20
2018-08-13T11:55:15.212Z,41.10
2018-08-13T11:57:43.958Z,41.00
2018-08-13T12:00:13.400Z,41.50
2018-08-13T12:02:42.106Z,41.10
2018-08-13T12:05:12.643Z,41.30
2018-08-13T12:07:41.959Z,41.10
2018-08-13T12:10:11.411Z,41.20
2018-08-13T12:12:41.257Z,41.50
2018-08-13T12:15:10.876Z,40.60
2018-08-13T12:17:39.837Z,40.80
2018-08-13T12:20:10.717Z,41.30
2018-08-13T12:22:39.241Z,40.30
2018-08-13T12:25:08.564Z,40.50
2018-08-13T12:27:37.332Z,40.90
2018-08-13T12:30:09.003Z,42.20
2018-08-13T12:32:38.000Z,41.80
2018-08-13T12:35:07.005Z,41.90
2018-08-13T12:37:35.552Z,43.00
2018-08-13T12:40:05.886Z,43.70
2018-08-13T12:42:34.976Z,43.70
2018-08-13T12:45:04.721Z,44.50
2018-08-13T12:47:34.069Z,44.50
2018-08-13T12:50:04.034Z,44.10
2018-08-13T12:52:32.908Z,46.00
2018-08-13T12:55:01.474Z,44.80
2018-08-13T12:57:29.965Z,44.20
2018-08-13T12:59:58.513Z,44.70
2018-08-13T13:02:26.985Z,46.20
2018-08-13T13:04:55.441Z,45.10
2018-08-13T13:07:23.924Z,44.70
2018-08-13T13:09:53.288Z,44.40
2018-08-13T13:12:21.804Z,45.10
2018-08-13T13:14:50.315Z,44.40
2018-08-13T13:17:18.765Z,44.10
2018-08-13T13:19:47.279Z,44.90
2018-08-13T13:22:15.789Z,44.60
2018-08-13T13:24:44.274Z,44.10
2018-08-13T13:27:12.756Z,43.30
2018-08-13T13:29:41.482Z,43.50
2018-08-13T13:32:09.937Z,44.30
2018-08-13T13:34:38.535Z,43.00
2018-08-13T13:37:07.422Z,44.20
2018-08-13T13:39:36.011Z,43.80
2018-08-13T13:42:04.568Z,43.30
2018-08-13T13:44:33.139Z,44.50
2018-08-13T13:47:02.594Z,43.00
2018-08-13T13:49:31.293Z,43.40
2018-08-13T13:51:59.921Z,44.00
2018-08-13T13:54:28.461Z,43.30
2018-08-13T13:56:58.035Z,42.60
2018-08-13T13:59:26.499Z,42.10
2018-08-13T14:01:55.054Z,42.60
2018-08-13T14:04:24.125Z,42.50
2018-08-13T14:06:52.700Z,43.20
2018-08-13T14:09:21.132Z,43.60
2018-08-13T14:11:49.623Z,43.60
2018-08-13T14:14:18.148Z,43.20
2018-08-13T14:16:47.453Z,43.70
2018-08-13T14:19:15.909Z,43.40
2018-08-13T14:21:44.410Z,44.00
2018-08-13T14:24:12.964Z,45.80
2018-08-13T14:26:41.605Z,49.00
2018-08-13T14:29:10.160Z,51.60
2018-08-13T14:31:38.685Z,49.50
2018-08-13T14:34:07.321Z,54.40
2018-08-13T14:36:35.818Z,53.70
2018-08-13T14:39:07.260Z,51.40
2018-08-13T14:41:35.685Z,50.40
2018-08-13T14:44:04.963Z,48.40
2018-08-13T14:46:33.458Z,49.20
2018-08-13T14:49:02.019Z,48.40
2018-08-13T14:51:30.552Z,48.80
2018-08-13T14:53:59.113Z,47.40
2018-08-13T14:56:28.164Z,49.40
2018-08-13T14:58:56.635Z,48.10
2018-08-13T15:01:25.184Z,48.00
2018-08-13T15:03:54.202Z,48.20
2018-08-13T15:06:23.269Z,46.90
2018-08-13T15:08:51.793Z,46.40
2018-08-13T15:11:20.512Z,47.30
2018-08-13T15:13:49.650Z,47.40
2018-08-13T15:16:18.114Z,46.70
2018-08-13T15:18:46.548Z,47.30
2018-08-13T15:21:15.154Z,47.00
2018-08-13T15:23:43.646Z,46.20
2018-08-13T15:26:12.131Z,46.00
2018-08-13T15:28:41.269Z,45.40
2018-08-13T15:31:09.757Z,45.30
2018-08-13T15:33:38.253Z,45.80
2018-08-13T15:36:06.877Z,46.20
2018-08-13T15:38:35.292Z,45.80
2018-08-13T15:41:03.774Z,46.20
2018-08-13T15:43:32.395Z,45.50
2018-08-13T15:46:00.902Z,46.20
2018-08-13T15:48:29.596Z,46.30
2018-08-13T15:50:58.028Z,46.60
2018-08-13T15:53:26.550Z,47.10
2018-08-13T15:55:55.029Z,46.90
2018-08-13T15:58:23.636Z,47.10
2018-08-13T16:00:52.093Z,47.10
2018-08-13T16:03:20.627Z,47.50
2018-08-13T16:05:49.113Z,48.70
2018-08-13T16:08:17.696Z,49.70
2018-08-13T16:10:46.173Z,50.50
2018-08-13T16:13:14.708Z,50.60
2018-08-13T16:15:43.282Z,51.00
2018-08-13T16:18:11.715Z,51.60
2018-08-13T16:20:40.234Z,50.60
2018-08-13T16:23:08.744Z,49.00
2018-08-13T16:25:37.329Z,49.80
2018-08-13T16:28:06.005Z,49.40
2018-08-13T16:30:34.657Z,48.80
2018-08-13T16:33:03.134Z,49.20
2018-08-13T16:35:31.641Z,48.90
2018-08-13T16:38:00.092Z,49.20
2018-08-13T16:40:28.605Z,50.00
2018-08-13T16:42:57.100Z,51.00
2018-08-13T16:45:25.656Z,55.30
2018-08-13T16:47:54.676Z,61.20
2018-08-13T16:50:28.278Z,60.00
2018-08-13T16:52:57.864Z,60.80
2018-08-13T16:55:27.749Z,61.70
2018-08-13T16:57:56.292Z,61.90
2018-08-13T17:00:27.112Z,59.90
2018-08-13T17:02:56.193Z,61.10
2018-08-13T17:05:24.812Z,62.20
2018-08-13T17:07:53.434Z,64.40
2018-08-13T17:10:24.674Z,65.60
2018-08-13T17:12:53.867Z,64.90
2018-08-13T17:15:23.056Z,65.80
2018-08-13T17:17:53.377Z,68.60
2018-08-13T17:20:27.473Z,68.70
2018-08-13T17:22:56.169Z,70.70
2018-08-13T17:25:24.680Z,71.80
2018-08-13T17:27:53.368Z,74.10
2018-08-13T17:30:24.450Z,74.00
2018-08-13T17:32:54.822Z,75.70
2018-08-13T17:35:29.523Z,75.30
2018-08-13T17:37:58.915Z,74.00
2018-08-13T17:40:27.953Z,75.00
2018-08-13T17:42:56.660Z,76.10
2018-08-13T17:45:25.280Z,75.50
2018-08-13T17:47:54.544Z,69.60
2018-08-13T17:50:23.672Z,71.90
2018-08-13T17:52:52.334Z,72.10
2018-08-13T17:55:21.027Z,74.00
2018-08-13T17:57:49.556Z,75.10
2018-08-13T18:00:24.454Z,76.20
2018-08-13T18:02:53.105Z,79.40
2018-08-13T18:05:23.484Z,77.10
2018-08-13T18:07:52.743Z,80.70
2018-08-13T18:10:26.060Z,78.60
2018-08-13T18:12:54.964Z,81.60
2018-08-13T18:15:23.486Z,82.20
2018-08-13T18:17:52.037Z,81.80
2018-08-13T18:20:21.145Z,80.50
2018-08-13T18:22:49.645Z,79.30
2018-08-13T18:25:18.235Z,80.80
2018-08-13T18:27:48.104Z,81.50
2018-08-13T18:30:18.582Z,81.00
2018-08-13T18:32:47.453Z,80.80
2018-08-13T18:35:16.359Z,80.40
2018-08-13T18:37:45.093Z,80.60
2018-08-13T18:40:17.505Z,78.60
2018-08-13T18:42:46.466Z,79.60
2018-08-13T18:45:15.287Z,79.60
2018-08-13T18:47:44.565Z,80.20
2018-08-13T18:50:15.433Z,79.90
2018-08-13T18:52:45.144Z,81.20
2018-08-13T18:55:17.173Z,79.90
2018-08-13T18:57:46.156Z,79.80
2018-08-13T19:00:17.395Z,81.10
2018-08-13T19:02:45.947Z,80.60
2018-08-13T19:05:15.592Z,79.30
2018-08-13T19:07:45.238Z,80.10
2018-08-13T19:10:14.986Z,80.00
2018-08-13T19:12:43.572Z,79.60
2018-08-13T19:15:17.204Z,82.50
2018-08-13T19:17:45.702Z,83.30
2018-08-13T19:20:14.820Z,84.40
2018-08-13T19:22:44.078Z,85.40
2018-08-13T19:25:14.636Z,85.30
2018-08-13T19:27:43.609Z,84.50
2018-08-13T19:30:13.944Z,84.00
2018-08-13T19:32:42.633Z,84.10
2018-08-13T19:35:11.436Z,84.60
2018-08-13T19:37:40.356Z,85.10
2018-08-13T19:40:12.804Z,84.60
2018-08-13T19:42:42.837Z,84.70
2018-08-13T19:45:12.569Z,84.90
2018-08-13T19:47:41.245Z,84.40
2018-08-13T19:50:11.075Z,84.10
2018-08-13T19:52:41.044Z,84.90
2018-08-13T19:55:10.044Z,84.60
2018-08-13T19:57:38.858Z,84.60
2018-08-13T20:00:16.842Z,86.00
2018-08-13T20:02:45.856Z,87.20
2018-08-13T20:05:14.371Z,87.30
2018-08-13T20:07:42.895Z,86.30
2018-08-13T20:10:13.152Z,86.40
2018-08-13T20:12:42.241Z,85.60
2018-08-13T20:15:11.097Z,85.40
2018-08-13T20:17:39.778Z,85.10
2018-08-13T20:20:11.868Z,84.70
2018-08-13T20:22:40.454Z,84.70
2018-08-13T20:25:10.778Z,85.00
2018-08-13T20:27:39.634Z,84.60
2018-08-13T20:30:10.139Z,84.90
2018-08-13T20:32:39.572Z,85.80
2018-08-13T20:35:08.107Z,86.40
2018-08-13T20:37:36.569Z,86.90
2018-08-13T20:40:06.501Z,86.80
2018-08-13T20:42:35.125Z,86.40
2018-08-13T20:45:03.681Z,86.00
2018-08-13T20:47:32.286Z,85.60
2018-08-13T20:50:00.848Z,85.80
2018-08-13T20:52:29.348Z,85.20
2018-08-13T20:54:57.848Z,85.20
2018-08-13T20:57:27.028Z,85.30
2018-08-13T20:59:55.543Z,86.10
2018-08-13T21:02:24.178Z,86.50
2018-08-13T21:04:52.735Z,86.60
2018-08-13T21:07:21.245Z,86.90
2018-08-13T21:09:49.696Z,87.00
2018-08-13T21:12:18.152Z,87.00
2018-08-13T21:14:46.635Z,86.60
2018-08-13T21:17:15.975Z,86.60
2018-08-13T21:19:44.505Z,86.10
2018-08-13T21:22:13.063Z,85.70
2018-08-13T21:24:41.507Z,85.60
2018-08-13T21:27:10.642Z,86.10
2018-08-13T21:29:39.251Z,86.20
2018-08-13T21:32:08.282Z,86.90
2018-08-13T21:34:37.381Z,87.50
2018-08-13T21:37:05.919Z,87.60
2018-08-13T21:39:34.427Z,87.30
2018-08-13T21:55:07.835Z,87.20
2018-08-13T21:57:36.481Z,87.20
2018-08-13T22:00:09.973Z,86.90
2018-08-13T22:02:38.689Z,86.40
2018-08-13T22:05:07.568Z,86.00
2018-08-13T22:07:36.185Z,85.90
2018-08-13T22:10:06.875Z,85.90
2018-08-13T22:12:35.448Z,85.70
2018-08-13T22:15:15.734Z,85.70
2018-08-13T22:17:44.252Z,86.00
2018-08-13T22:20:12.753Z,85.70
2018-08-13T22:22:41.301Z,86.20
2018-08-13T22:25:14.920Z,86.60
2018-08-13T22:27:43.876Z,86.50
2018-08-13T22:30:12.369Z,86.60
2018-08-13T22:32:40.897Z,86.80
2018-08-13T22:35:10.132Z,86.90
2018-08-13T22:37:40.280Z,86.80
2018-08-13T22:40:11.344Z,86.80
2018-08-13T22:42:39.904Z,87.10
2018-08-13T22:45:09.022Z,87.10
2018-08-13T22:47:38.223Z,87.50
2018-08-13T22:50:08.126Z,87.60
2018-08-13T22:52:36.967Z,87.70
2018-08-13T22:55:06.657Z,87.80
2018-08-13T22:57:35.164Z,87.90
2018-08-13T23:00:03.889Z,88.00
2018-08-13T23:02:32.428Z,87.90
2018-08-13T23:05:01.127Z,88.00
2018-08-13T23:07:29.716Z,88.00
2018-08-13T23:09:58.152Z,87.90
2018-08-13T23:12:26.677Z,88.00
2018-08-13T23:14:55.149Z,87.90
2018-08-13T23:17:23.835Z,87.80
2018-08-13T23:19:52.247Z,88.00
2018-08-13T23:22:56.004Z,88.00
2018-08-13T23:25:24.838Z,88.10
2018-08-13T23:27:54.469Z,87.90
2018-08-13T23:30:22.999Z,88.00
2018-08-13T23:32:52.729Z,88.00
2018-08-13T23:35:21.843Z,88.00
2018-08-13T23:37:50.773Z,87.90
2018-08-13T23:40:19.263Z,88.00
2018-08-13T23:42:47.871Z,87.60
2018-08-13T23:45:17.959Z,87.50
2018-08-13T23:47:46.516Z,87.20
2018-08-13T23:50:18.068Z,87.00
2018-08-13T23:52:47.790Z,87.00
2018-08-13T23:55:29.061Z,86.80
2018-08-13T23:57:57.963Z,86.70
